Time;durP1;ratioP1;P1;durP2;ratioP2;P2;SDS_P1;SDS_P2;PMS_P1;PMS_P2;Temp;Humidity;BMP_temperature;BMP_pressure;BME280_temperature;BME280_humidity;BME280_pressure;Samples;Min_cycle;Max_cycle;Signal;HPM_P1;HPM_P2
2022/09/15 00:03:53;;;;;;;11.67;3.80;;;;;;;15.43;95.61;99309.30;5330467;55;1138908;-74
2022/09/15 00:09:00;;;;;;;9.93;3.53;;;;;;;15.22;94.94;99315.81;5319976;55;1139089;-74
2022/09/15 00:14:07;;;;;;;7.97;4.07;;;;;;;14.93;95.21;99314.69;5319924;55;1136908;-73
2022/09/15 00:19:13;;;;;;;14.47;4.50;;;;;;;14.80;96.49;99306.95;5319778;55;1136927;-73
2022/09/15 00:24:18;;;;;;;7.43;4.20;;;;;;;14.83;97.16;99299.42;5274776;55;1139091;-73
2022/09/15 00:29:24;;;;;;;7.00;3.70;;;;;;;14.91;96.97;99311.36;5222844;56;1137183;-73
2022/09/15 00:34:30;;;;;;;5.37;3.37;;;;;;;14.91;97.26;99306.04;5156495;56;1137089;-73
2022/09/15 00:39:36;;;;;;;8.93;4.67;;;;;;;14.96;97.77;99298.36;5216976;56;1136977;-73
2022/09/15 00:45:03;;;;;;;12.53;5.03;;;;;;;15.01;97.77;99308.46;5195104;56;1136949;-73
2022/09/15 00:50:13;;;;;;;20.30;7.22;;;;;;;15.02;97.41;99301.63;5136656;56;1139387;-73
2022/09/15 00:55:30;;;;;;;10.13;5.37;;;;;;;15.00;97.30;99299.64;5181531;56;1136971;-73
2022/09/15 01:00:38;;;;;;;19.37;9.87;;;;;;;14.99;97.46;99295.32;5204102;56;1137019;-73
2022/09/15 01:05:49;;;;;;;20.50;11.20;;;;;;;14.93;97.25;99273.92;5219998;56;1137073;-73
2022/09/15 01:10:55;;;;;;;16.10;9.10;;;;;;;14.86;96.84;99283.10;5219297;56;1139017;-73
2022/09/15 01:16:18;;;;;;;8.30;4.03;;;;;;;14.74;96.63;99279.19;5219522;56;1136957;-73
2022/09/15 01:21:40;;;;;;;9.67;3.57;;;;;;;14.69;96.79;99287.70;5219528;56;1134908;-74
2022/09/15 01:27:19;;;;;;;10.70;3.43;;;;;;;14.61;97.05;99285.09;5193571;56;1134946;-73
2022/09/15 01:33:05;;;;;;;9.37;3.30;;;;;;;14.48;97.26;99288.00;5235442;55;1139043;-74
2022/09/15 01:38:41;;;;;;;9.70;3.37;;;;;;;14.28;97.58;99282.23;5267760;55;1136971;-73
2022/09/15 01:44:04;;;;;;;6.00;2.97;;;;;;;14.25;98.42;99270.09;5247675;56;1137459;-73
2022/09/15 01:49:14;;;;;;;9.10;3.27;;;;;;;14.31;98.57;99272.08;5298790;56;1137194;-74
2022/09/15 01:54:25;;;;;;;10.00;3.90;;;;;;;14.31;98.87;99265.43;5210262;56;1136931;-73
2022/09/15 01:59:31;;;;;;;6.60;3.60;;;;;;;14.28;98.59;99268.43;5154761;56;1139021;-73
2022/09/15 02:04:47;;;;;;;11.55;3.92;;;;;;;14.25;99.24;99270.09;5154998;56;1137003;-74
2022/09/15 02:09:57;;;;;;;8.73;4.63;;;;;;;14.22;99.01;99275.76;5154805;57;1139152;-73
2022/09/15 02:15:13;;;;;;;14.47;4.07;;;;;;;14.15;99.08;99272.64;5191124;56;1136960;-73
2022/09/15 02:20:33;;;;;;;11.20;3.67;;;;;;;14.10;99.23;99277.14;5241353;55;1139081;-73
2022/09/15 02:25:52;;;;;;;8.60;3.33;;;;;;;14.06;99.45;99265.19;5180681;55;1137258;-73
2022/09/15 02:31:01;;;;;;;14.97;3.53;;;;;;;14.07;99.83;99269.00;5149864;57;1135076;-73
2022/09/15 02:36:08;;;;;;;9.93;3.53;;;;;;;13.98;99.88;99276.69;5119068;57;1136976;-73
2022/09/15 02:41:14;;;;;;;8.70;3.97;;;;;;;13.86;100.00;99275.41;5119902;56;1135015;-72
2022/09/15 02:46:23;;;;;;;10.73;4.13;;;;;;;13.81;100.00;99276.40;5167359;56;1136860;-72
2022/09/15 02:51:30;;;;;;;7.78;3.45;;;;;;;13.78;100.00;99276.73;5196057;56;1139461;-73
2022/09/15 02:56:36;;;;;;;10.37;4.17;;;;;;;13.78;100.00;99267.93;5192247;56;1137148;-73
2022/09/15 03:01:43;;;;;;;16.47;4.03;;;;;;;13.71;100.00;99273.11;5205006;56;1138979;-73
2022/09/15 03:06:49;;;;;;;11.00;3.73;;;;;;;13.68;100.00;99272.12;5197669;55;1139263;-73
2022/09/15 03:11:55;;;;;;;15.43;4.63;;;;;;;13.68;100.00;99273.44;5169034;56;1139242;-73
2022/09/15 03:17:02;;;;;;;9.53;3.40;;;;;;;13.67;100.00;99272.61;5196221;56;1138960;-73
2022/09/15 03:22:09;;;;;;;8.50;3.70;;;;;;;13.70;100.00;99268.80;5196418;56;1137096;-73
2022/09/15 03:27:15;;;;;;;11.70;3.50;;;;;;;13.70;100.00;99274.94;5150119;56;1135115;-74
2022/09/15 03:32:21;;;;;;;9.70;3.63;;;;;;;13.68;100.00;99272.12;5086130;57;1137422;-73
2022/09/15 03:37:28;;;;;;;10.10;3.77;;;;;;;13.66;100.00;99261.66;5209403;56;1138964;-75
2022/09/15 03:42:34;;;;;;;10.63;3.15;;;;;;;13.64;100.00;99264.14;5220419;56;1141013;-73
2022/09/15 03:47:40;;;;;;;10.03;3.23;;;;;;;13.63;100.00;99264.64;5241150;56;1142320;-73
2022/09/15 03:52:46;;;;;;;12.58;3.25;;;;;;;13.58;100.00;99261.69;5240486;56;1141143;-72
2022/09/15 03:57:52;;;;;;;8.17;3.50;;;;;;;13.60;100.00;99261.48;5229175;56;1141668;-72
2022/09/15 04:02:58;;;;;;;9.27;3.37;;;;;;;13.57;100.00;99264.01;5232458;56;1139093;-72
2022/09/15 04:08:05;;;;;;;10.20;3.47;;;;;;;13.50;100.00;99259.52;5283412;56;1139079;-73
2022/09/15 04:13:11;;;;;;;8.87;3.27;;;;;;;13.46;100.00;99267.48;5227744;56;1141279;-72
2022/09/15 04:18:17;;;;;;;10.33;3.43;;;;;;;13.40;100.00;99268.17;5227743;56;1138972;-72
2022/09/15 04:23:24;;;;;;;9.73;2.70;;;;;;;13.38;100.00;99269.67;5228094;56;1141147;-72
2022/09/15 04:28:32;;;;;;;10.40;3.73;;;;;;;13.37;100.00;99277.30;5160217;56;1139043;-72
2022/09/15 04:33:40;;;;;;;16.23;3.03;;;;;;;13.37;100.00;99281.28;5141581;57;1141122;-72
2022/09/15 04:38:47;;;;;;;6.13;3.00;;;;;;;13.35;100.00;99278.80;5142287;57;1141399;-73
2022/09/15 04:43:54;;;;;;;14.30;3.30;;;;;;;13.35;100.00;99279.29;5151229;56;1139112;-73
2022/09/15 04:49:00;;;;;;;10.43;4.13;;;;;;;13.41;100.00;99272.00;5248023;55;1141051;-73
2022/09/15 04:54:06;;;;;;;9.17;3.30;;;;;;;13.41;100.00;99279.13;5287106;55;1141100;-73
2022/09/15 04:59:19;;;;;;;9.77;2.97;;;;;;;13.38;100.00;99279.80;5093643;57;1139136;-73
2022/09/15 05:04:25;;;;;;;7.20;2.62;;;;;;;13.35;100.00;99277.47;5228209;56;1139024;-73
2022/09/15 05:09:33;;;;;;;11.20;4.00;;;;;;;13.36;100.00;99281.78;5218264;56;1139008;-73
2022/09/15 05:14:39;;;;;;;9.17;2.90;;;;;;;13.37;100.00;99276.80;5219436;56;1141138;-74
2022/09/15 05:19:45;;;;;;;10.07;2.80;;;;;;;13.40;100.00;99276.14;5170909;56;1138984;-74
2022/09/15 05:24:50;;;;;;;12.00;3.40;;;;;;;13.43;100.00;99268.67;5224568;56;1140696;-73
2022/09/15 05:29:56;;;;;;;7.97;3.13;;;;;;;13.46;100.00;99259.52;5144537;56;1141083;-73
2022/09/15 05:35:04;;;;;;;8.97;3.37;;;;;;;13.46;100.00;99264.33;5143724;56;1139416;-74
2022/09/15 05:40:11;;;;;;;10.93;2.67;;;;;;;13.46;100.00;99260.84;5208821;56;1138900;-73
2022/09/15 05:45:17;;;;;;;10.47;3.20;;;;;;;13.46;100.00;99274.12;5173472;56;1141311;-72
2022/09/15 05:50:22;;;;;;;7.50;2.77;;;;;;;13.49;100.00;99277.28;5129090;56;1141203;-72
2022/09/15 05:55:28;;;;;;;8.50;3.03;;;;;;;13.49;100.00;99274.63;5208597;56;1139093;-72
2022/09/15 06:00:34;;;;;;;7.07;3.03;;;;;;;13.53;100.00;99269.81;5133031;56;1139129;-73
2022/09/15 06:05:40;;;;;;;11.00;2.70;;;;;;;13.57;100.00;99273.80;5071007;57;1139063;-73
2022/09/15 06:10:47;;;;;;;6.30;2.17;;;;;;;13.57;100.00;99277.29;5079932;57;1141074;-72
2022/09/15 06:15:52;;;;;;;3.43;2.13;;;;;;;13.71;100.00;99275.27;5129391;56;1138921;-72
2022/09/15 06:21:00;;;;;;;9.57;3.00;;;;;;;13.96;100.00;99268.05;5210859;56;1139112;-72
2022/09/15 06:26:11;;;;;;;11.47;3.50;;;;;;;14.22;100.00;99270.94;5192672;56;1139028;-72
2022/09/15 06:31:18;;;;;;;9.77;2.10;;;;;;;14.64;100.00;99260.80;5134146;57;1141128;-72
2022/09/15 06:36:27;;;;;;;8.30;2.70;;;;;;;14.64;100.00;99260.80;5141472;56;1136942;-72
2022/09/15 06:41:33;;;;;;;7.70;2.53;;;;;;;14.89;100.00;99276.09;5179161;56;1137040;-73
2022/09/15 06:46:39;;;;;;;11.37;2.73;;;;;;;15.04;100.00;99270.33;5067456;57;1137090;-72
2022/09/15 06:51:45;;;;;;;5.97;2.10;;;;;;;15.18;100.00;99271.89;5121460;56;1139074;-72
2022/09/15 06:56:51;;;;;;;6.03;1.60;;;;;;;15.28;100.00;99269.80;5211485;56;1137123;-72
2022/09/15 07:01:57;;;;;;;3.97;1.30;;;;;;;15.44;100.00;99275.81;5213592;56;1136826;-73
2022/09/15 07:07:03;;;;;;;6.53;2.20;;;;;;;15.62;100.00;99277.35;5209848;56;1137255;-72
2022/09/15 07:12:09;;;;;;;8.10;2.08;;;;;;;15.77;98.93;99271.03;5209897;55;1137036;-73
2022/09/15 07:17:15;;;;;;;7.97;1.63;;;;;;;15.94;98.24;99280.19;5209828;56;1135114;-73
2022/09/15 07:22:24;;;;;;;5.00;1.97;;;;;;;16.01;96.13;99284.63;5191771;56;1134854;-73
2022/09/15 07:27:30;;;;;;;8.10;1.83;;;;;;;16.05;94.70;99274.39;5204888;56;1134232;-73
2022/09/15 07:32:36;;;;;;;8.27;1.60;;;;;;;16.22;95.19;99277.70;5222187;55;1134855;-72
2022/09/15 07:37:43;;;;;;;5.70;1.97;;;;;;;16.25;92.51;99272.00;5172300;56;1134853;-72
2022/09/15 07:42:49;;;;;;;7.03;1.90;;;;;;;16.38;93.45;99278.32;5136341;57;1134859;-72
2022/09/15 07:47:55;;;;;;;6.37;1.70;;;;;;;16.50;92.10;99280.00;5215668;56;1134827;-72
2022/09/15 07:53:01;;;;;;;7.07;2.00;;;;;;;16.57;90.66;99279.58;5208036;56;1134857;-73
2022/09/15 07:58:06;;;;;;;8.93;1.50;;;;;;;16.58;90.11;99293.25;5207386;56;1134849;-73
2022/09/15 08:03:13;;;;;;;2.80;1.43;;;;;;;16.62;89.06;99283.86;5207389;56;1132779;-72
2022/09/15 08:08:18;;;;;;;3.70;1.47;;;;;;;16.76;90.59;99275.02;5207437;56;1132829;-73
2022/09/15 08:13:24;;;;;;;5.60;1.43;;;;;;;16.86;88.72;99278.19;5207559;56;1136949;-73
2022/09/15 08:18:31;;;;;;;2.37;1.17;;;;;;;16.91;87.72;99286.98;5207586;56;1136717;-73
2022/09/15 08:23:37;;;;;;;4.40;1.20;;;;;;;17.03;87.62;99292.64;5152887;56;1136878;-73
2022/09/15 08:28:43;;;;;;;4.97;1.47;;;;;;;17.14;86.04;99284.94;5198308;56;1136911;-73
2022/09/15 08:33:52;;;;;;;10.57;1.73;;;;;;;17.21;86.75;99284.50;5143465;56;1137106;-73
2022/09/15 08:38:58;;;;;;;1.50;0.97;;;;;;;17.34;84.66;99280.30;5197117;56;1139032;-72
2022/09/15 08:44:20;;;;;;;1.27;0.70;;;;;;;17.44;85.06;99289.63;5219852;56;1137286;-73
2022/09/15 08:49:54;;;;;;;4.73;0.93;;;;;;;17.43;80.86;99293.82;5220059;56;1137282;-72
2022/09/15 08:55:05;;;;;;;2.57;0.97;;;;;;;17.40;83.09;99282.20;5219766;56;1137169;-73
2022/09/15 09:00:17;;;;;;;6.03;1.07;;;;;;;17.50;84.19;99284.85;5218043;56;1137129;-73
2022/09/15 09:05:33;;;;;;;1.73;0.77;;;;;;;17.77;79.54;99284.56;5219883;56;1136967;-73
2022/09/15 09:11:07;;;;;;;4.60;0.70;;;;;;;17.83;77.77;99286.98;5222447;55;1136997;-73
2022/09/15 09:16:35;;;;;;;7.33;1.13;;;;;;;17.88;78.22;99285.86;5241074;55;1136951;-73
2022/09/15 09:21:46;;;;;;;9.67;3.00;;;;;;;18.06;78.52;99281.34;5239629;55;1136991;-73
2022/09/15 09:26:55;;;;;;;4.20;0.95;;;;;;;18.19;76.99;99274.21;5204792;55;1137003;-73
2022/09/15 09:32:03;;;;;;;2.50;0.90;;;;;;;18.30;74.76;99268.83;5184945;56;1134931;-73
2022/09/15 09:37:14;;;;;;;5.47;1.30;;;;;;;18.37;71.06;99272.34;5186463;55;1134833;-73
2022/09/15 09:42:23;;;;;;;3.22;1.00;;;;;;;18.52;73.06;99274.36;5157509;56;1134914;-73
2022/09/15 09:47:30;;;;;;;5.03;1.98;;;;;;;18.67;73.87;99274.75;5175870;56;1134854;-73
2022/09/15 09:52:39;;;;;;;3.95;0.93;;;;;;;18.82;72.28;99266.86;5200427;56;1134896;-73
2022/09/15 09:57:44;;;;;;;3.10;1.30;;;;;;;19.00;72.50;99278.34;5237869;56;1134913;-67
2022/09/15 10:02:50;;;;;;;4.95;1.02;;;;;;;18.94;72.83;99268.45;5138276;57;1134951;-75
2022/09/15 10:08:02;;;;;;;2.77;1.15;;;;;;;19.07;74.60;99267.64;5236853;56;1134842;-75
2022/09/15 10:13:10;;;;;;;1.55;0.70;;;;;;;18.98;74.06;99254.42;5138248;57;1134924;-74
2022/09/15 10:18:37;;;;;;;1.75;0.98;;;;;;;18.76;74.21;99255.64;5231799;56;1135026;-74
2022/09/15 10:23:42;;;;;;;5.82;0.96;;;;;;;18.62;76.05;99248.59;5121460;57;1133043;-74
2022/09/15 10:29:10;;;;;;;9.45;1.67;;;;;;;18.91;75.49;99244.74;5308594;55;1132715;-74
2022/09/15 10:34:31;;;;;;;5.95;1.10;;;;;;;19.05;75.36;99249.60;5321241;55;1136992;-74
2022/09/15 10:39:53;;;;;;;1.75;0.88;;;;;;;19.02;74.78;99239.28;5290280;55;1137058;-74
2022/09/15 10:45:08;;;;;;;4.30;1.10;;;;;;;18.58;76.31;99247.30;5205440;55;1137139;-74
2022/09/15 10:50:43;;;;;;;4.78;0.88;;;;;;;18.31;78.58;99245.05;5242848;55;1137201;-74
2022/09/15 10:56:22;;;;;;;4.92;1.10;;;;;;;18.10;78.89;99247.83;5234551;55;1136922;-74
2022/09/15 11:01:37;;;;;;;1.27;0.72;;;;;;;17.93;80.66;99260.70;5220132;56;1136954;-74
2022/09/15 11:07:05;;;;;;;3.22;1.10;;;;;;;17.83;81.17;99262.91;5207367;56;1137074;-74
2022/09/15 11:12:31;;;;;;;5.42;1.20;;;;;;;17.77;81.90;99259.67;5207628;56;1137013;-73
2022/09/15 11:18:14;;;;;;;3.77;1.00;;;;;;;17.87;83.25;99252.94;5207679;56;1134852;-74
2022/09/15 11:23:44;;;;;;;4.65;1.20;;;;;;;18.14;81.16;99252.59;5178622;56;1134989;-74
2022/09/15 11:28:56;;;;;;;5.08;1.65;;;;;;;18.22;79.29;99256.94;5123172;56;1135200;-74
2022/09/15 11:34:44;;;;;;;1.60;1.00;;;;;;;18.17;78.93;99253.54;5152582;56;1132865;-74
2022/09/15 11:40:00;;;;;;;4.37;0.98;;;;;;;18.16;78.00;99243.86;4961164;56;1137107;-74
2022/09/15 11:45:16;;;;;;;2.47;1.12;;;;;;;18.32;78.57;99244.55;5150337;56;1137110;-74
2022/09/15 11:50:36;;;;;;;0.88;0.68;;;;;;;18.55;78.68;99242.34;5233145;56;1136955;-74
2022/09/15 11:56:02;;;;;;;5.50;0.80;;;;;;;18.70;72.06;99251.08;5266569;55;1137203;-74
2022/09/15 12:01:21;;;;;;;1.02;0.75;;;;;;;18.77;71.80;99255.95;5217084;55;1136964;-75
2022/09/15 12:07:01;;;;;;;0.82;0.47;;;;;;;18.94;73.06;99245.68;5196805;56;1136837;-74
2022/09/15 12:12:14;;;;;;;2.24;0.64;;;;;;;18.99;71.47;99253.91;5241633;56;1137127;-74
2022/09/15 12:17:32;;;;;;;0.60;0.53;;;;;;;18.98;68.58;99258.45;5238445;56;1136910;-74
2022/09/15 12:22:45;;;;;;;0.75;0.50;;;;;;;18.92;65.97;99265.15;5239098;56;1134880;-74
2022/09/15 12:28:26;;;;;;;3.42;0.70;;;;;;;18.92;66.51;99262.47;5080569;57;1135006;-74
2022/09/15 12:34:03;;;;;;;1.00;0.68;;;;;;;18.90;67.24;99272.56;5218855;56;1134886;-74
2022/09/15 12:39:31;;;;;;;1.40;0.70;;;;;;;18.87;67.68;99270.28;5225825;56;1132770;-74
2022/09/15 12:44:43;;;;;;;5.80;0.90;;;;;;;18.70;64.78;99273.02;5204503;56;1136958;-74
2022/09/15 12:49:52;;;;;;;1.75;0.50;;;;;;;18.54;64.55;99268.81;5205226;56;1136968;-74
2022/09/15 12:55:04;;;;;;;4.67;1.40;;;;;;;18.56;65.82;99266.25;5206479;56;1136939;-74
2022/09/15 13:00:34;;;;;;;5.22;0.60;;;;;;;18.63;67.24;99272.19;5215417;56;1136385;-74
2022/09/15 13:05:47;;;;;;;3.25;0.57;;;;;;;18.68;66.88;99264.35;5207040;56;1136878;-74
2022/09/15 13:11:09;;;;;;;7.50;1.05;;;;;;;18.80;66.12;99264.06;5206994;56;1137114;-74
2022/09/15 13:16:22;;;;;;;2.08;1.15;;;;;;;18.86;66.94;99262.75;5206870;56;1137060;-74
2022/09/15 13:21:29;;;;;;;2.20;1.20;;;;;;;18.86;66.16;99264.61;5164787;56;1136909;-74
2022/09/15 13:26:37;;;;;;;2.05;0.90;;;;;;;18.69;66.60;99266.83;5206569;56;1137285;-74
2022/09/15 13:31:56;;;;;;;2.40;0.60;;;;;;;18.49;66.41;99256.02;5154030;56;1137004;-74
2022/09/15 13:37:15;;;;;;;1.90;0.62;;;;;;;18.47;66.87;99254.59;5135354;57;1137010;-74
2022/09/15 13:42:58;;;;;;;3.33;0.65;;;;;;;18.60;66.80;99251.98;5179488;56;1137107;-74
2022/09/15 13:48:39;;;;;;;3.47;0.90;;;;;;;18.78;66.83;99247.40;5131331;57;1134921;-75
2022/09/15 13:54:07;;;;;;;3.42;0.60;;;;;;;19.20;65.69;99242.20;5187918;56;1134816;-74
2022/09/15 13:59:20;;;;;;;1.65;0.60;;;;;;;19.06;62.22;99239.20;5206689;56;1134911;-75
2022/09/15 14:04:30;;;;;;;1.32;0.50;;;;;;;18.89;64.13;99249.48;5206113;56;1133252;-73
2022/09/15 14:09:46;;;;;;;1.02;0.50;;;;;;;18.82;62.46;99237.39;5206824;56;1136780;-74
2022/09/15 14:14:56;;;;;;;2.60;0.75;;;;;;;18.88;61.38;99235.25;5121622;57;1136987;-74
2022/09/15 14:20:05;;;;;;;2.27;0.72;;;;;;;18.76;58.09;99242.75;5121030;57;1136959;-74
2022/09/15 14:25:15;;;;;;;2.72;0.82;;;;;;;18.73;58.87;99231.92;5137247;56;1136846;-74
2022/09/15 14:30:28;;;;;;;1.72;1.10;;;;;;;18.52;58.46;99229.35;5206370;56;1136987;-74
2022/09/15 14:35:37;;;;;;;6.12;0.98;;;;;;;18.33;57.89;99223.44;5193909;57;1136922;-74
2022/09/15 14:40:43;;;;;;;1.07;0.95;;;;;;;18.26;59.44;99232.77;5127694;57;1136551;-74
2022/09/15 14:45:49;;;;;;;1.98;0.90;;;;;;;18.36;59.02;99232.39;5111778;57;1136928;-74
2022/09/15 14:51:02;;;;;;;0.57;0.50;;;;;;;18.49;59.53;99237.78;5132668;57;1136956;-74
2022/09/15 14:56:13;;;;;;;19.73;9.93;;;;;;;18.74;59.46;99216.69;5187727;57;1137026;-75
2022/09/15 15:01:57;;;;;;;3.50;0.60;;;;;;;18.90;58.08;99211.77;5206926;56;1139008;-74
2022/09/15 15:07:24;;;;;;;1.77;0.75;;;;;;;19.07;58.38;99219.41;5206661;57;1136905;-74
2022/09/15 15:12:43;;;;;;;3.30;1.92;;;;;;;19.03;58.40;99218.16;5206707;56;1137092;-74
2022/09/15 15:17:53;;;;;;;0.42;0.42;;;;;;;18.98;57.33;99221.45;5206364;56;1136955;-74
2022/09/15 15:23:24;;;;;;;1.80;0.78;;;;;;;18.89;58.20;99228.87;5254893;56;1137137;-74
2022/09/15 15:28:36;;;;;;;14.35;2.42;;;;;;;18.77;59.20;99230.50;5295046;56;1134911;-74
2022/09/15 15:33:58;;;;;;;2.80;1.00;;;;;;;18.60;58.93;99230.05;5234827;55;1136962;-75
2022/09/15 15:39:06;;;;;;;2.00;0.80;;;;;;;18.51;59.02;99235.73;5143514;56;1134802;-74
2022/09/15 15:44:21;;;;;;;2.37;1.20;;;;;;;18.41;61.64;99228.61;5163202;56;1134893;-74
2022/09/15 15:49:31;;;;;;;6.80;1.30;;;;;;;18.41;61.64;99228.61;5125782;56;1134893;-74
2022/09/15 15:54:36;;;;;;;2.67;1.12;;;;;;;18.51;62.06;99230.38;5180326;56;1135000;-73
2022/09/15 15:59:42;;;;;;;3.45;0.88;;;;;;;18.54;60.73;99227.30;5213443;56;1134906;-74
2022/09/15 16:04:47;;;;;;;4.70;0.80;;;;;;;18.38;61.15;99231.16;5170896;56;1134852;-74
2022/09/15 16:09:53;;;;;;;5.30;1.05;;;;;;;18.21;61.92;99227.18;5174480;56;1132873;-74
2022/09/15 16:15:00;;;;;;;2.47;1.32;;;;;;;18.06;61.69;99232.67;5190291;56;21817;-73
2022/09/15 16:20:07;;;;;;;5.40;1.50;;;;;;;17.93;62.23;99236.11;5206676;56;1132789;-73
2022/09/15 16:25:17;;;;;;;1.92;1.15;;;;;;;17.80;62.36;99241.90;5121949;57;1136960;-73
2022/09/15 16:30:23;;;;;;;3.37;1.10;;;;;;;17.71;63.24;99229.72;4974150;58;1137017;-73
2022/09/15 16:35:54;;;;;;;0.97;0.87;;;;;;;17.68;63.57;99228.26;5052023;58;1137129;-73
2022/09/15 16:41:00;;;;;;;7.27;1.17;;;;;;;17.64;63.98;99236.86;5048166;58;1136998;-73
2022/09/15 16:46:08;;;;;;;1.67;0.90;;;;;;;17.57;64.38;99238.10;5046338;57;1136914;-72
2022/09/15 16:51:20;;;;;;;2.28;1.00;;;;;;;17.50;65.07;99248.77;5007245;58;1136913;-73
2022/09/15 16:56:26;;;;;;;2.87;1.40;;;;;;;17.46;65.30;99246.66;4991250;58;1136993;-74
2022/09/15 17:01:31;;;;;;;1.93;1.03;;;;;;;17.39;65.63;99253.31;5025614;58;1136994;-73
2022/09/15 17:06:37;;;;;;;4.97;1.25;;;;;;;17.33;66.06;99250.06;5079614;56;1136945;-74
2022/09/15 17:11:43;;;;;;;4.27;1.47;;;;;;;17.24;65.79;99259.25;5171388;56;1137004;-74
2022/09/15 17:16:53;;;;;;;10.50;2.73;;;;;;;17.15;66.13;99259.05;5253783;56;1137171;-76
2022/09/15 17:21:59;;;;;;;13.40;2.70;;;;;;;17.03;66.50;99256.58;5292753;56;1138914;-73
2022/09/15 17:27:05;;;;;;;7.37;2.00;;;;;;;16.95;66.96;99263.40;5298641;56;1139229;-68
2022/09/15 17:32:11;;;;;;;6.53;1.70;;;;;;;16.85;67.36;99265.86;5298668;56;1136937;-68
2022/09/15 17:37:17;;;;;;;3.90;1.37;;;;;;;16.71;67.61;99269.91;5273321;56;1136943;-67
2022/09/15 17:42:23;;;;;;;10.60;1.27;;;;;;;16.60;67.96;99270.37;5295829;55;1136663;-66
2022/09/15 17:47:29;;;;;;;3.23;1.33;;;;;;;16.47;68.30;99277.73;5295360;55;1139100;-66
2022/09/15 17:52:35;;;;;;;2.73;0.90;;;;;;;16.39;68.68;99272.48;5298410;56;1137022;-67
2022/09/15 17:57:40;;;;;;;2.50;0.67;;;;;;;16.30;68.88;99273.11;5298646;56;1136923;-68
2022/09/15 18:02:55;;;;;;;4.55;1.00;;;;;;;16.25;69.12;99278.66;5298446;55;1136935;-68
2022/09/15 18:08:04;;;;;;;4.00;1.10;;;;;;;16.17;69.50;99276.44;5298893;56;1137221;-66
2022/09/15 18:13:22;;;;;;;3.73;1.20;;;;;;;16.10;69.89;99274.17;5220672;56;1136918;-66
2022/09/15 18:18:29;;;;;;;4.87;1.57;;;;;;;16.04;70.20;99274.09;5298380;56;1136884;-70
2022/09/15 18:23:36;;;;;;;4.66;1.86;;;;;;;15.98;70.75;99270.31;5298585;56;1137111;-67
2022/09/15 18:28:41;;;;;;;2.73;2.07;;;;;;;15.96;71.26;99271.50;5298841;55;1137133;-64
2022/09/15 18:33:47;;;;;;;8.27;2.87;;;;;;;15.93;71.85;99274.53;5260562;56;1137041;-66
2022/09/15 18:38:53;;;;;;;2.97;2.07;;;;;;;15.92;72.15;99286.20;5075106;57;1134923;-66
2022/09/15 18:43:58;;;;;;;8.63;2.13;;;;;;;15.90;72.58;99281.05;5184130;56;1135139;-68
2022/09/15 18:49:08;;;;;;;2.37;1.63;;;;;;;15.90;73.17;99281.56;5194475;56;1134984;-70
2022/09/15 18:54:13;;;;;;;5.30;1.83;;;;;;;15.78;74.25;99327.34;5172290;56;1134781;-68
2022/09/15 18:59:19;;;;;;;7.37;3.10;;;;;;;15.39;79.62;99320.84;5235476;56;1134815;-71
2022/09/15 19:04:25;;;;;;;17.53;2.30;;;;;;;15.06;81.82;99321.58;5241348;56;1134913;-69
2022/09/15 19:09:31;;;;;;;8.17;1.60;;;;;;;14.78;86.66;99327.92;5206172;56;1137158;-67
2022/09/15 19:14:36;;;;;;;2.60;1.53;;;;;;;14.62;90.69;99325.84;5241529;55;1134742;-67
2022/09/15 19:19:45;;;;;;;5.30;1.77;;;;;;;14.50;91.69;99320.58;5238947;55;1134842;-65
2022/09/15 19:24:51;;;;;;;4.97;1.63;;;;;;;14.48;90.48;99307.95;5233626;56;1134904;-72
2022/09/15 19:29:57;;;;;;;2.47;1.20;;;;;;;14.53;90.94;99309.06;5255034;56;1135091;-67
2022/09/15 19:35:02;;;;;;;2.77;1.30;;;;;;;14.48;92.23;99310.61;5195012;56;1134889;-71
2022/09/15 19:40:12;;;;;;;3.40;1.20;;;;;;;14.46;92.28;99320.09;5199364;56;1135002;-68
2022/09/15 19:45:18;;;;;;;2.83;0.70;;;;;;;14.46;92.32;99316.10;5208318;56;1134862;-66
2022/09/15 19:50:24;;;;;;;6.27;1.17;;;;;;;14.50;93.89;99315.26;5159987;56;1134835;-67
2022/09/15 19:55:33;;;;;;;3.90;1.60;;;;;;;14.51;92.95;99308.94;5110700;57;1135074;-67
2022/09/15 20:00:38;;;;;;;5.90;1.03;;;;;;;14.44;94.22;99312.78;5207465;56;1132884;-69
2022/09/15 20:05:53;;;;;;;8.50;1.97;;;;;;;14.44;93.63;99308.79;5140143;56;1132681;-64
2022/09/15 20:10:59;;;;;;;4.20;1.17;;;;;;;14.46;94.13;99316.10;5134486;57;1136994;-67
2022/09/15 20:16:04;;;;;;;4.90;1.32;;;;;;;14.44;94.07;99322.09;5139152;56;1136871;-67
2022/09/15 20:21:19;;;;;;;3.73;1.13;;;;;;;14.37;94.41;99326.39;5134275;57;1137221;-64
2022/09/15 20:26:25;;;;;;;3.17;1.03;;;;;;;14.31;94.13;99326.60;5214353;56;1137032;-66
2022/09/15 20:31:35;;;;;;;4.72;1.00;;;;;;;14.24;94.65;99314.98;5219844;56;1136894;-69
2022/09/15 20:36:41;;;;;;;3.33;0.90;;;;;;;14.23;95.99;99319.14;5187750;56;1136991;-66
2022/09/15 20:41:46;;;;;;;6.10;1.17;;;;;;;14.15;95.99;99317.34;5134186;57;1137219;-68
2022/09/15 20:46:52;;;;;;;2.30;0.90;;;;;;;14.11;95.42;99326.66;5139310;56;1136964;-68
2022/09/15 20:51:59;;;;;;;5.67;1.40;;;;;;;14.02;95.48;99335.17;5136871;56;1137026;-67
2022/09/15 20:57:05;;;;;;;5.67;1.40;;;;;;;13.98;95.53;99336.50;5169243;56;1136958;-67
2022/09/15 21:02:11;;;;;;;2.07;1.10;;;;;;;13.97;95.84;99332.18;5126879;56;1136948;-72
2022/09/15 21:07:17;;;;;;;4.17;1.30;;;;;;;13.94;95.65;99323.70;5180811;56;1136935;-66
2022/09/15 21:12:22;;;;;;;1.80;1.10;;;;;;;13.89;95.51;99330.05;5197162;55;1136880;-69
2022/09/15 21:17:28;;;;;;;1.23;1.13;;;;;;;13.87;95.72;99335.53;5206897;55;1137062;-66
2022/09/15 21:22:34;;;;;;;1.47;1.03;;;;;;;13.86;95.60;99333.05;5202268;55;1136921;-66
2022/09/15 21:27:41;;;;;;;8.43;1.20;;;;;;;13.87;96.01;99329.39;5238462;55;1137183;-66
2022/09/15 21:32:47;;;;;;;3.83;1.10;;;;;;;13.86;95.87;99339.19;5219836;56;1137157;-69
2022/09/15 21:37:53;;;;;;;2.17;0.90;;;;;;;13.82;96.34;99341.02;5178759;56;1136958;-71
2022/09/15 21:42:59;;;;;;;2.30;0.93;;;;;;;13.80;96.47;99341.17;5127894;57;1137052;-69
2022/09/15 21:48:04;;;;;;;1.40;0.90;;;;;;;13.73;95.69;99334.89;5126687;57;1137177;-66
2022/09/15 21:53:11;;;;;;;1.30;0.87;;;;;;;13.68;96.00;99334.55;5152626;56;1136915;-66
2022/09/15 21:58:18;;;;;;;5.93;1.70;;;;;;;13.64;96.04;99339.37;5198863;56;1137304;-67
2022/09/15 22:03:24;;;;;;;2.97;1.00;;;;;;;13.65;95.48;99344.19;5156267;56;1136947;-67
2022/09/15 22:08:30;;;;;;;2.17;0.90;;;;;;;13.61;95.37;99348.16;5156420;56;1137099;-64
2022/09/15 22:13:40;;;;;;;2.60;1.13;;;;;;;13.55;93.53;99349.68;5151167;56;1136991;-66
2022/09/15 22:18:47;;;;;;;3.53;0.50;;;;;;;13.49;93.73;99344.19;5145975;56;1137070;-69
2022/09/15 22:23:57;;;;;;;8.57;0.87;;;;;;;13.47;93.84;99337.71;5153773;56;1137135;-69
2022/09/15 22:29:05;;;;;;;5.40;0.60;;;;;;;13.46;93.79;99349.83;5146343;56;1137184;-69
2022/09/15 22:34:11;;;;;;;3.40;0.77;;;;;;;13.44;94.06;99355.33;5145616;56;1137119;-67
2022/09/15 22:39:18;;;;;;;1.57;0.70;;;;;;;13.43;94.62;99358.98;5163131;56;1136970;-68
2022/09/15 22:44:24;;;;;;;6.33;1.10;;;;;;;13.41;94.44;99356.16;5218470;56;1136962;-69
2022/09/15 22:49:29;;;;;;;1.63;0.60;;;;;;;13.37;94.17;99361.78;5170317;56;1137092;-64
2022/09/15 22:54:35;;;;;;;3.90;1.10;;;;;;;13.34;94.38;99357.30;5212468;56;1136976;-69
2022/09/15 22:59:41;;;;;;;3.03;0.70;;;;;;;13.33;94.45;99354.30;5218859;56;1136623;-66
2022/09/15 23:04:47;;;;;;;1.87;1.20;;;;;;;13.26;94.93;99356.81;5197313;56;1135027;-66
2022/09/15 23:09:53;;;;;;;2.87;0.73;;;;;;;13.18;94.88;99366.07;5212529;56;1134931;-67
2022/09/15 23:15:02;;;;;;;1.13;0.77;;;;;;;13.11;95.08;99364.22;5220131;56;1134863;-70
2022/09/15 23:20:06;;;;;;;3.03;1.10;;;;;;;13.01;95.33;99358.55;5219851;56;1134962;-71
2022/09/15 23:25:13;;;;;;;1.37;0.60;;;;;;;12.98;95.50;99364.70;5220247;56;1134982;-69
2022/09/15 23:30:18;;;;;;;3.37;0.70;;;;;;;12.89;95.88;99371.79;5220296;56;1134957;-66
2022/09/15 23:35:24;;;;;;;0.77;0.70;;;;;;;12.82;95.72;99372.61;5230433;55;1134876;-69
2022/09/15 23:40:31;;;;;;;2.73;0.70;;;;;;;12.76;95.36;99379.38;5223014;55;1134945;-70
2022/09/15 23:45:37;;;;;;;1.30;0.50;;;;;;;12.71;96.21;99377.70;5141133;56;1134893;-66